Time;durP1;ratioP1;P1;durP2;ratioP2;P2;SDS_P1;SDS_P2;PMS_P1;PMS_P2;Temp;Humidity;BMP_temperature;BMP_pressure;BME280_temperature;BME280_humidity;BME280_pressure;Samples;Min_cycle;Max_cycle;Signal;HPM_P1;HPM_P2
2023/12/31 00:00:34;;;;;;;4.83;2.17;;;7.50;99.90;;;;;;4945693;28;20189;-60
2023/12/31 00:03:00;;;;;;;5.73;2.10;;;7.50;99.90;;;;;;4950420;29;20588;-59
2023/12/31 00:05:26;;;;;;;3.87;1.97;;;7.40;99.90;;;;;;4947797;28;20210;-59
2023/12/31 00:07:52;;;;;;;4.53;1.60;;;7.60;99.90;;;;;;4950536;28;20183;-59
2023/12/31 00:10:18;;;;;;;5.63;1.90;;;7.60;99.90;;;;;;4943611;29;20191;-60
2023/12/31 00:12:44;;;;;;;8.07;2.37;;;7.70;99.90;;;;;;4945685;29;20721;-58
2023/12/31 00:15:10;;;;;;;4.23;2.27;;;7.70;99.90;;;;;;4947916;28;20216;-59
2023/12/31 00:17:35;;;;;;;5.37;1.93;;;7.70;99.90;;;;;;4945133;29;20285;-58
2023/12/31 00:20:02;;;;;;;4.07;1.90;;;7.70;99.90;;;;;;4941217;28;20187;-54
2023/12/31 00:22:27;;;;;;;5.10;2.10;;;7.70;99.90;;;;;;4951536;28;20611;-57
2023/12/31 00:24:54;;;;;;;2.60;1.80;;;7.70;99.90;;;;;;4949965;28;20211;-60
2023/12/31 00:27:20;;;;;;;7.07;2.30;;;7.70;99.90;;;;;;4943223;29;20198;-56
2023/12/31 00:29:46;;;;;;;6.20;1.87;;;7.70;99.90;;;;;;4954309;28;20186;-58
2023/12/31 00:32:12;;;;;;;5.93;2.00;;;7.60;99.90;;;;;;4938821;28;20198;-59
2023/12/31 00:34:37;;;;;;;4.73;1.70;;;7.60;99.90;;;;;;4942206;29;20288;-59
2023/12/31 00:37:06;;;;;;;3.50;2.10;;;7.60;99.90;;;;;;4948599;28;20182;-59
2023/12/31 00:39:32;;;;;;;3.03;2.00;;;7.70;99.90;;;;;;4943868;28;20602;-60
2023/12/31 00:41:57;;;;;;;4.67;1.90;;;7.70;99.90;;;;;;4939267;29;20178;-60
2023/12/31 00:44:23;;;;;;;3.80;2.00;;;7.70;99.90;;;;;;4945510;28;20215;-58
2023/12/31 00:46:48;;;;;;;4.23;1.97;;;7.70;99.90;;;;;;4946882;29;20631;-57
2023/12/31 00:49:14;;;;;;;5.00;1.97;;;7.80;99.90;;;;;;4953964;28;20182;-59
2023/12/31 00:51:39;;;;;;;4.43;1.77;;;7.70;99.90;;;;;;4950820;28;20548;-57
2023/12/31 00:54:05;;;;;;;4.83;1.90;;;7.70;99.90;;;;;;4948475;28;20252;-59
2023/12/31 00:56:30;;;;;;;6.90;1.83;;;7.80;99.90;;;;;;4953671;28;20673;-58
2023/12/31 00:58:56;;;;;;;4.40;1.90;;;7.80;99.90;;;;;;4946008;28;20198;-59
2023/12/31 01:01:22;;;;;;;3.10;1.77;;;7.80;99.90;;;;;;4945582;28;20666;-59
2023/12/31 01:03:47;;;;;;;6.73;1.40;;;7.80;99.90;;;;;;4941944;28;20626;-59
2023/12/31 01:06:13;;;;;;;2.90;1.50;;;7.70;99.90;;;;;;4942224;29;20586;-57
2023/12/31 01:08:39;;;;;;;7.53;2.00;;;7.70;99.90;;;;;;4942388;29;20183;-58
2023/12/31 01:11:04;;;;;;;5.37;1.80;;;7.60;99.90;;;;;;4946775;29;20193;-58
2023/12/31 01:13:31;;;;;;;5.67;2.30;;;7.60;99.90;;;;;;4951329;28;20198;-58
2023/12/31 01:15:56;;;;;;;3.77;1.63;;;7.60;99.90;;;;;;4939521;29;20198;-59
2023/12/31 01:18:22;;;;;;;3.77;1.70;;;7.60;99.90;;;;;;4943794;28;20186;-60
2023/12/31 01:20:48;;;;;;;5.17;1.77;;;7.60;99.90;;;;;;4937702;29;20185;-59
2023/12/31 01:23:14;;;;;;;3.63;1.97;;;7.60;99.90;;;;;;4952843;28;20297;-59
2023/12/31 01:25:40;;;;;;;4.27;1.70;;;7.60;99.90;;;;;;4937297;28;20215;-55
2023/12/31 01:28:05;;;;;;;3.73;2.10;;;7.40;99.90;;;;;;4947220;28;20183;-59
2023/12/31 01:30:31;;;;;;;2.83;1.60;;;7.40;99.90;;;;;;4951090;29;20197;-59
2023/12/31 01:32:57;;;;;;;3.40;1.50;;;7.40;99.90;;;;;;4939407;28;20238;-56
2023/12/31 01:35:22;;;;;;;3.53;1.40;;;7.50;99.90;;;;;;4934186;29;20191;-57
2023/12/31 01:37:48;;;;;;;4.40;1.63;;;7.40;99.90;;;;;;4941512;28;20528;-57
2023/12/31 01:40:13;;;;;;;3.70;1.60;;;7.40;99.90;;;;;;4948835;29;20594;-56
2023/12/31 01:42:39;;;;;;;2.13;1.27;;;7.40;99.90;;;;;;4944157;28;20218;-56
2023/12/31 01:45:05;;;;;;;3.97;1.53;;;7.30;99.90;;;;;;4946976;28;20302;-59
2023/12/31 01:47:32;;;;;;;5.93;1.87;;;7.30;99.90;;;;;;4941492;29;20194;-58
2023/12/31 01:49:59;;;;;;;4.63;1.60;;;7.30;99.90;;;;;;4941232;28;20664;-59
2023/12/31 01:52:25;;;;;;;3.50;1.60;;;7.30;99.90;;;;;;4941414;29;20551;-59
2023/12/31 01:54:54;;;;;;;3.30;1.70;;;7.10;99.90;;;;;;4952877;28;20194;-59
2023/12/31 01:57:25;;;;;;;9.53;1.60;;;7.10;99.90;;;;;;4937119;28;20662;-60
2023/12/31 01:59:53;;;;;;;7.53;1.70;;;7.00;99.90;;;;;;4937487;29;20190;-59
2023/12/31 02:02:20;;;;;;;9.87;1.60;;;7.00;99.90;;;;;;4944093;28;20186;-59
2023/12/31 02:04:46;;;;;;;3.67;1.73;;;6.90;99.90;;;;;;4949330;28;20199;-59
2023/12/31 02:07:11;;;;;;;4.63;1.90;;;6.90;99.90;;;;;;4933477;29;20547;-56
2023/12/31 02:09:37;;;;;;;4.13;1.90;;;6.90;99.90;;;;;;4941449;29;20242;-58
2023/12/31 02:12:04;;;;;;;3.17;1.60;;;6.80;99.90;;;;;;4946345;29;20261;-58
2023/12/31 02:14:30;;;;;;;2.33;1.37;;;6.80;99.90;;;;;;4943100;28;20226;-59
2023/12/31 02:16:55;;;;;;;3.63;1.97;;;6.80;99.90;;;;;;4945740;29;20182;-59
2023/12/31 02:19:21;;;;;;;5.83;1.77;;;6.80;99.90;;;;;;4944467;28;20207;-58
2023/12/31 02:21:47;;;;;;;2.67;1.60;;;6.80;99.90;;;;;;4951756;28;20314;-59
2023/12/31 02:24:17;;;;;;;3.87;1.60;;;6.80;99.90;;;;;;4945682;28;20553;-58
2023/12/31 02:26:43;;;;;;;2.00;1.43;;;6.80;99.90;;;;;;4948881;29;20210;-59
2023/12/31 02:29:08;;;;;;;3.27;1.60;;;6.80;99.90;;;;;;4939424;29;20186;-59
2023/12/31 02:31:35;;;;;;;5.70;1.63;;;6.70;99.90;;;;;;4952097;28;20600;-59
2023/12/31 02:34:00;;;;;;;2.90;1.50;;;6.70;99.90;;;;;;4944120;28;20222;-57
2023/12/31 02:36:26;;;;;;;2.87;1.80;;;6.60;99.90;;;;;;4952135;28;20561;-59
2023/12/31 02:38:51;;;;;;;4.70;1.50;;;6.60;99.90;;;;;;4952400;28;20182;-59
2023/12/31 02:41:17;;;;;;;5.23;1.83;;;6.60;99.90;;;;;;4937125;28;20541;-59
2023/12/31 02:43:43;;;;;;;4.43;1.80;;;6.60;99.90;;;;;;4950684;28;20268;-58
2023/12/31 02:46:08;;;;;;;3.00;1.60;;;6.50;99.90;;;;;;4944681;28;20241;-58
2023/12/31 02:48:34;;;;;;;4.77;2.00;;;6.50;99.90;;;;;;4950583;28;20213;-59
2023/12/31 02:50:59;;;;;;;3.33;2.10;;;6.50;99.90;;;;;;4938139;29;20209;-59
2023/12/31 02:53:25;;;;;;;3.57;2.17;;;6.50;99.90;;;;;;4943485;28;20641;-56
2023/12/31 02:55:50;;;;;;;3.23;1.90;;;6.50;99.90;;;;;;4952200;28;20640;-58
2023/12/31 02:58:16;;;;;;;4.97;2.37;;;6.50;99.90;;;;;;4936990;28;20578;-60
2023/12/31 03:00:42;;;;;;;6.03;2.30;;;6.50;99.90;;;;;;4951567;28;20600;-59
2023/12/31 03:03:08;;;;;;;4.47;2.53;;;6.50;99.90;;;;;;4955013;28;20202;-59
2023/12/31 03:05:33;;;;;;;5.13;2.60;;;6.40;99.90;;;;;;4947726;28;20202;-59
2023/12/31 03:07:59;;;;;;;4.67;2.83;;;6.40;99.90;;;;;;4954842;29;20658;-59
2023/12/31 03:10:26;;;;;;;5.70;2.60;;;6.40;99.90;;;;;;4939811;28;20179;-57
2023/12/31 03:12:51;;;;;;;5.90;3.07;;;6.40;99.90;;;;;;4951005;28;20202;-57
2023/12/31 03:15:19;;;;;;;5.90;2.83;;;6.40;99.90;;;;;;4951800;29;20205;-56
2023/12/31 03:17:45;;;;;;;6.00;3.20;;;6.40;99.90;;;;;;4947734;28;20213;-58
2023/12/31 03:20:10;;;;;;;6.97;3.10;;;6.40;99.90;;;;;;4947780;28;20654;-59
2023/12/31 03:22:36;;;;;;;5.13;2.90;;;6.40;99.90;;;;;;4954925;28;20190;-58
2023/12/31 03:25:02;;;;;;;6.33;3.10;;;6.40;99.90;;;;;;4955443;28;20202;-60
2023/12/31 03:27:28;;;;;;;7.13;3.30;;;6.40;99.90;;;;;;4947287;28;20541;-58
2023/12/31 03:29:54;;;;;;;7.50;3.37;;;6.40;99.90;;;;;;4951274;28;20183;-58
2023/12/31 03:32:19;;;;;;;8.70;3.50;;;6.30;99.90;;;;;;4943273;29;20278;-60
2023/12/31 03:34:45;;;;;;;8.17;3.43;;;6.30;99.90;;;;;;4955004;28;20237;-56
2023/12/31 03:37:10;;;;;;;9.27;3.67;;;6.30;99.90;;;;;;4955322;28;20202;-58
2023/12/31 03:39:36;;;;;;;6.07;3.87;;;6.30;99.90;;;;;;4945839;28;20207;-54
2023/12/31 03:42:01;;;;;;;7.73;3.37;;;6.20;99.90;;;;;;4940569;29;20187;-58
2023/12/31 03:44:27;;;;;;;6.27;3.50;;;6.20;99.90;;;;;;4939097;28;20277;-58
2023/12/31 03:46:52;;;;;;;7.20;3.77;;;6.20;99.90;;;;;;4955324;28;20186;-57
2023/12/31 03:49:18;;;;;;;8.23;3.60;;;6.10;99.90;;;;;;4955202;28;20186;-59
2023/12/31 03:51:44;;;;;;;10.13;4.50;;;6.20;99.90;;;;;;4954245;28;20225;-57
2023/12/31 03:54:09;;;;;;;9.27;4.10;;;6.20;99.90;;;;;;4948697;28;20285;-54
2023/12/31 03:56:35;;;;;;;14.47;5.63;;;6.10;99.90;;;;;;4951445;29;20617;-57
2023/12/31 03:59:00;;;;;;;10.73;4.90;;;6.20;99.90;;;;;;4940766;29;20199;-57
2023/12/31 04:01:26;;;;;;;15.63;4.97;;;6.20;99.90;;;;;;4954996;28;20194;-58
2023/12/31 04:03:52;;;;;;;10.30;4.70;;;6.20;99.90;;;;;;4949558;28;20620;-56
2023/12/31 04:06:17;;;;;;;10.97;4.77;;;6.20;99.90;;;;;;4950639;29;20222;-60
2023/12/31 04:08:43;;;;;;;12.23;4.70;;;6.20;99.90;;;;;;4951981;28;20602;-56
2023/12/31 04:11:08;;;;;;;11.83;4.77;;;6.20;99.90;;;;;;4935561;29;20615;-59
2023/12/31 04:13:34;;;;;;;9.07;4.67;;;6.30;99.90;;;;;;4950372;28;20608;-59
2023/12/31 04:16:00;;;;;;;12.53;4.77;;;6.20;99.90;;;;;;4935750;29;20191;-59
2023/12/31 04:18:25;;;;;;;8.30;4.80;;;6.20;99.90;;;;;;4943360;29;20194;-58
2023/12/31 04:20:51;;;;;;;16.87;5.13;;;6.20;99.90;;;;;;4946966;29;20190;-57
2023/12/31 04:23:16;;;;;;;10.67;5.27;;;6.20;99.90;;;;;;4946641;28;20211;-55
2023/12/31 04:25:42;;;;;;;11.37;5.37;;;6.10;99.90;;;;;;4953424;29;20222;-57
2023/12/31 04:28:08;;;;;;;13.80;6.27;;;6.00;99.90;;;;;;4948476;28;20188;-59
2023/12/31 04:30:33;;;;;;;20.93;7.50;;;6.00;99.90;;;;;;4943196;28;20190;-58
2023/12/31 04:32:59;;;;;;;10.83;5.43;;;5.90;99.90;;;;;;4939305;29;20217;-60
2023/12/31 04:35:24;;;;;;;12.33;5.17;;;5.90;99.90;;;;;;4946034;28;20198;-59
2023/12/31 04:37:50;;;;;;;8.93;4.30;;;5.80;99.90;;;;;;4954243;28;20198;-60
2023/12/31 04:40:15;;;;;;;9.90;4.83;;;5.70;99.90;;;;;;4947122;28;20652;-57
2023/12/31 04:42:41;;;;;;;14.47;4.90;;;5.70;99.90;;;;;;4952735;28;20215;-58
2023/12/31 04:45:09;;;;;;;11.57;5.20;;;5.70;99.90;;;;;;4946083;28;20221;-59
2023/12/31 04:47:37;;;;;;;10.27;4.57;;;5.60;99.90;;;;;;4937940;28;20191;-55
2023/12/31 04:50:04;;;;;;;11.37;4.90;;;5.60;99.90;;;;;;4948559;28;20565;-58
2023/12/31 04:52:30;;;;;;;9.47;4.63;;;5.60;99.90;;;;;;4942761;28;20195;-55
2023/12/31 04:54:55;;;;;;;11.87;5.20;;;5.70;99.90;;;;;;4945824;28;20292;-56
2023/12/31 04:57:21;;;;;;;12.57;4.37;;;5.60;99.90;;;;;;4953893;28;20209;-58
2023/12/31 04:59:46;;;;;;;17.63;4.57;;;5.60;99.90;;;;;;4945905;28;20285;-58
2023/12/31 05:02:12;;;;;;;16.10;5.30;;;5.60;99.90;;;;;;4946715;28;20614;-58
2023/12/31 05:04:40;;;;;;;8.10;4.80;;;5.50;99.90;;;;;;4952140;29;20241;-56
2023/12/31 05:07:08;;;;;;;11.53;4.57;;;5.40;99.90;;;;;;4947896;28;20195;-58
2023/12/31 05:09:33;;;;;;;10.70;4.50;;;5.50;99.90;;;;;;4951367;28;20245;-59
2023/12/31 05:11:59;;;;;;;11.00;4.30;;;5.50;99.90;;;;;;4940381;28;20183;-57
2023/12/31 05:14:24;;;;;;;11.30;4.43;;;5.40;99.90;;;;;;4950351;29;20345;-56
2023/12/31 05:16:50;;;;;;;8.73;4.60;;;5.40;99.90;;;;;;4942109;28;20198;-58
2023/12/31 05:19:15;;;;;;;10.23;5.17;;;5.50;99.90;;;;;;4934344;29;20618;-56
2023/12/31 05:21:41;;;;;;;12.40;4.37;;;5.40;99.90;;;;;;4951782;29;20198;-58
2023/12/31 05:24:07;;;;;;;11.60;5.30;;;5.50;99.90;;;;;;4946938;28;20218;-60
2023/12/31 05:26:32;;;;;;;13.77;5.43;;;5.40;99.90;;;;;;4943334;29;20218;-56
2023/12/31 05:28:58;;;;;;;9.57;5.60;;;5.30;99.90;;;;;;4948919;28;20185;-59
2023/12/31 05:31:24;;;;;;;10.70;5.13;;;5.20;99.90;;;;;;4941860;29;20187;-57
2023/12/31 05:33:49;;;;;;;17.23;6.23;;;5.30;99.90;;;;;;4952097;28;20300;-59
2023/12/31 05:36:15;;;;;;;14.20;5.77;;;5.20;99.90;;;;;;4945531;28;20251;-58
2023/12/31 05:38:40;;;;;;;16.07;5.43;;;5.20;99.90;;;;;;4951610;28;20207;-58
2023/12/31 05:41:06;;;;;;;13.67;5.73;;;5.30;99.90;;;;;;4953304;28;20277;-60
2023/12/31 05:43:31;;;;;;;15.53;6.10;;;5.30;99.90;;;;;;4936423;28;20682;-59
2023/12/31 05:45:57;;;;;;;10.37;5.10;;;5.30;99.90;;;;;;4952944;28;20681;-60
2023/12/31 05:48:23;;;;;;;12.33;5.50;;;5.30;99.90;;;;;;4940558;28;20553;-60
2023/12/31 05:50:49;;;;;;;12.43;6.33;;;5.30;99.90;;;;;;4952751;28;20183;-57
2023/12/31 05:53:15;;;;;;;9.47;5.50;;;5.30;99.90;;;;;;4952089;28;20226;-56
2023/12/31 05:55:41;;;;;;;11.97;5.67;;;5.30;99.90;;;;;;4944916;28;20199;-59
2023/12/31 05:58:06;;;;;;;11.17;5.10;;;5.30;99.90;;;;;;4953047;28;20194;-60
2023/12/31 06:00:32;;;;;;;11.87;5.30;;;5.30;99.90;;;;;;4944707;28;20277;-59
2023/12/31 06:02:57;;;;;;;12.63;4.67;;;5.30;99.90;;;;;;4944106;28;20213;-59
2023/12/31 06:05:23;;;;;;;13.87;5.30;;;5.30;99.90;;;;;;4944519;28;20222;-60
2023/12/31 06:07:48;;;;;;;13.17;4.87;;;5.20;99.90;;;;;;4952354;28;20241;-60
2023/12/31 06:10:14;;;;;;;9.57;4.63;;;5.30;99.90;;;;;;4944853;28;20241;-56
2023/12/31 06:12:39;;;;;;;11.00;4.87;;;5.30;99.90;;;;;;4951933;28;20210;-58
2023/12/31 06:15:09;;;;;;;9.27;4.70;;;5.30;99.90;;;;;;4939285;28;20274;-58
2023/12/31 06:17:35;;;;;;;8.40;4.50;;;5.30;99.90;;;;;;4933416;29;20195;-59
2023/12/31 06:20:02;;;;;;;11.50;5.13;;;5.30;99.90;;;;;;4933262;29;20190;-60
2023/12/31 06:22:28;;;;;;;10.23;4.77;;;5.30;99.90;;;;;;4940706;29;20547;-60
2023/12/31 06:24:53;;;;;;;8.40;4.30;;;5.30;99.90;;;;;;4940796;28;20218;-59
2023/12/31 06:27:19;;;;;;;7.23;3.70;;;5.30;99.90;;;;;;4941175;29;20199;-57
2023/12/31 06:29:44;;;;;;;8.67;3.63;;;5.30;99.90;;;;;;4941140;29;20183;-58
2023/12/31 06:32:10;;;;;;;8.90;4.00;;;5.20;99.90;;;;;;4946545;29;20710;-56
2023/12/31 06:34:36;;;;;;;9.47;4.57;;;5.30;99.90;;;;;;4950650;28;20334;-58
2023/12/31 06:37:01;;;;;;;8.40;4.00;;;5.20;99.90;;;;;;4940437;29;20666;-59
2023/12/31 06:39:27;;;;;;;10.20;4.33;;;5.20;99.90;;;;;;4948005;28;20562;-60
2023/12/31 06:41:53;;;;;;;9.23;4.47;;;5.20;99.90;;;;;;4948303;29;20182;-57
2023/12/31 06:44:19;;;;;;;9.17;4.60;;;5.30;99.90;;;;;;4949110;28;20210;-59
2023/12/31 06:46:44;;;;;;;12.43;4.47;;;5.20;99.90;;;;;;4952785;29;20215;-60
2023/12/31 06:49:10;;;;;;;8.13;3.70;;;5.20;99.90;;;;;;4937265;29;20265;-59
2023/12/31 06:51:35;;;;;;;7.27;3.93;;;5.20;99.90;;;;;;4937955;29;20186;-59
2023/12/31 06:54:01;;;;;;;15.73;4.23;;;5.20;99.90;;;;;;4951190;28;20213;-59
2023/12/31 06:56:27;;;;;;;14.07;4.13;;;5.20;99.90;;;;;;4952732;29;20209;-58
2023/12/31 06:58:52;;;;;;;9.67;3.93;;;5.10;99.90;;;;;;4940553;29;20573;-58
2023/12/31 07:01:18;;;;;;;9.30;4.63;;;5.10;99.90;;;;;;4941084;28;20194;-60
2023/12/31 07:03:45;;;;;;;11.20;4.97;;;5.10;99.90;;;;;;4954441;28;20218;-59
2023/12/31 07:06:11;;;;;;;13.33;5.50;;;5.20;99.90;;;;;;4955592;28;20225;-57
2023/12/31 07:08:36;;;;;;;22.40;9.13;;;5.10;99.90;;;;;;4946414;28;20187;-59
2023/12/31 07:11:03;;;;;;;21.53;8.83;;;5.20;99.90;;;;;;4949561;29;20179;-60
2023/12/31 07:13:30;;;;;;;26.93;10.73;;;5.30;99.90;;;;;;4939094;28;20231;-58
2023/12/31 07:15:58;;;;;;;25.73;11.90;;;5.30;99.90;;;;;;4943626;28;20230;-56
2023/12/31 07:18:23;;;;;;;28.70;11.20;;;5.10;99.90;;;;;;4944291;29;20190;-58
2023/12/31 07:20:49;;;;;;;58.73;25.33;;;5.20;99.90;;;;;;4955420;28;20658;-58
2023/12/31 07:23:15;;;;;;;44.03;20.50;;;5.20;99.90;;;;;;4954888;28;20218;-59
2023/12/31 07:25:40;;;;;;;37.33;17.17;;;5.20;99.90;;;;;;4953486;28;20237;-60
2023/12/31 07:28:06;;;;;;;24.00;10.53;;;5.20;99.90;;;;;;4949881;29;20527;-58
2023/12/31 07:30:31;;;;;;;7.50;4.20;;;5.10;99.90;;;;;;4954174;29;20524;-58
2023/12/31 07:32:57;;;;;;;12.63;4.67;;;5.20;99.90;;;;;;4946670;28;20301;-59
2023/12/31 07:35:23;;;;;;;9.50;4.57;;;5.30;99.90;;;;;;4941973;28;20187;-59
2023/12/31 07:37:48;;;;;;;9.10;4.27;;;5.40;99.90;;;;;;4944244;29;20194;-58
2023/12/31 07:40:14;;;;;;;7.63;3.70;;;5.40;99.90;;;;;;4944240;29;20264;-57
2023/12/31 07:42:39;;;;;;;13.10;5.20;;;5.50;99.90;;;;;;4945043;28;20241;-59
2023/12/31 07:45:06;;;;;;;21.43;7.87;;;5.50;99.90;;;;;;4955091;28;20209;-59
2023/12/31 07:47:35;;;;;;;13.07;6.40;;;5.60;99.90;;;;;;4945859;28;20663;-58
2023/12/31 07:50:04;;;;;;;11.17;4.90;;;5.60;99.90;;;;;;4940551;28;20254;-59
2023/12/31 07:52:30;;;;;;;11.20;6.13;;;5.60;99.90;;;;;;4946432;28;20210;-59
2023/12/31 07:54:55;;;;;;;8.37;3.90;;;5.60;99.90;;;;;;4951437;28;20214;-59
2023/12/31 07:57:21;;;;;;;6.47;3.43;;;5.60;99.90;;;;;;4944185;29;20203;-57
2023/12/31 07:59:46;;;;;;;7.17;3.97;;;5.70;99.90;;;;;;4946487;29;20198;-59
2023/12/31 08:02:12;;;;;;;9.67;3.87;;;5.70;99.90;;;;;;4954796;28;20669;-56
2023/12/31 08:04:38;;;;;;;8.70;3.50;;;5.80;99.90;;;;;;4945432;28;20206;-56
2023/12/31 08:07:03;;;;;;;8.40;3.30;;;5.80;99.90;;;;;;4940500;29;20179;-60
2023/12/31 08:09:29;;;;;;;4.90;3.20;;;5.90;99.90;;;;;;4945371;28;20612;-60
2023/12/31 08:11:55;;;;;;;6.17;3.50;;;6.00;99.90;;;;;;4946441;29;20182;-58
2023/12/31 08:14:22;;;;;;;6.90;3.37;;;6.00;99.90;;;;;;4939186;28;20259;-59
2023/12/31 08:16:47;;;;;;;9.07;3.53;;;6.10;99.90;;;;;;4945859;29;20314;-59
2023/12/31 08:19:13;;;;;;;7.17;3.10;;;6.10;99.90;;;;;;4945742;28;20269;-54
2023/12/31 08:21:39;;;;;;;10.83;3.57;;;6.10;99.90;;;;;;4952839;28;20178;-57
2023/12/31 08:24:05;;;;;;;6.40;3.70;;;6.10;99.90;;;;;;4953903;28;20202;-61
2023/12/31 08:26:31;;;;;;;6.60;3.23;;;6.10;99.90;;;;;;4945711;28;20237;-58
2023/12/31 08:28:58;;;;;;;8.57;3.50;;;6.10;99.90;;;;;;4950064;28;20190;-60
2023/12/31 08:31:23;;;;;;;6.53;3.50;;;6.10;99.90;;;;;;4950244;29;20193;-59
2023/12/31 08:33:49;;;;;;;7.77;3.20;;;6.20;99.90;;;;;;4953049;28;20218;-58
2023/12/31 08:36:14;;;;;;;7.63;3.40;;;6.20;99.90;;;;;;4953594;28;20175;-56
2023/12/31 08:38:40;;;;;;;7.77;3.47;;;6.20;99.90;;;;;;4945911;28;20199;-57
2023/12/31 08:41:06;;;;;;;7.93;3.63;;;6.20;99.90;;;;;;4953432;28;20193;-60
2023/12/31 08:43:31;;;;;;;7.97;4.00;;;6.30;99.90;;;;;;4943912;28;20210;-57
2023/12/31 08:45:57;;;;;;;8.73;3.77;;;6.30;99.90;;;;;;4934340;29;20579;-58
2023/12/31 08:48:22;;;;;;;9.27;3.57;;;6.30;99.90;;;;;;4941612;29;20206;-58
2023/12/31 08:50:49;;;;;;;10.10;4.03;;;6.40;99.90;;;;;;4953331;28;20185;-58
2023/12/31 08:53:14;;;;;;;8.70;4.30;;;6.40;99.90;;;;;;4944713;28;20206;-58
2023/12/31 08:55:40;;;;;;;59.10;20.00;;;6.50;99.90;;;;;;4945168;28;20203;-59
2023/12/31 08:58:06;;;;;;;13.57;5.67;;;6.50;99.90;;;;;;4945440;28;20265;-61
2023/12/31 09:00:31;;;;;;;7.00;3.27;;;6.50;99.90;;;;;;4944155;28;20191;-56
2023/12/31 09:02:58;;;;;;;9.13;3.90;;;6.60;99.90;;;;;;4952453;28;20209;-57
2023/12/31 09:05:27;;;;;;;7.50;3.37;;;6.80;99.90;;;;;;4952809;28;20242;-60
2023/12/31 09:07:52;;;;;;;8.57;3.67;;;6.80;99.90;;;;;;4933943;29;20553;-60
2023/12/31 09:10:18;;;;;;;10.27;3.60;;;6.90;99.90;;;;;;4940724;29;20710;-60
2023/12/31 09:12:44;;;;;;;10.00;3.80;;;6.90;99.90;;;;;;4944331;28;20289;-60
2023/12/31 09:15:11;;;;;;;8.97;3.77;;;6.90;99.90;;;;;;4947168;28;20558;-59
2023/12/31 09:17:37;;;;;;;5.63;3.37;;;7.00;99.90;;;;;;4942838;29;20201;-60
2023/12/31 09:20:05;;;;;;;8.10;3.60;;;7.00;99.90;;;;;;4952974;28;20182;-60
2023/12/31 09:22:31;;;;;;;6.23;3.23;;;6.90;99.90;;;;;;4952003;28;20202;-56
2023/12/31 09:24:57;;;;;;;8.03;3.53;;;7.00;99.90;;;;;;4952659;28;20195;-58
2023/12/31 09:27:22;;;;;;;5.90;2.93;;;7.10;99.90;;;;;;4953322;28;20217;-59
2023/12/31 09:29:48;;;;;;;7.43;3.83;;;7.10;99.90;;;;;;4944721;28;20182;-60
2023/12/31 09:32:14;;;;;;;7.53;3.40;;;7.10;99.90;;;;;;4951936;28;20187;-58
2023/12/31 09:34:39;;;;;;;6.77;3.50;;;7.20;99.90;;;;;;4952558;28;20659;-57
2023/12/31 09:37:18;;;;;;;6.33;3.40;;;7.20;99.90;;;;;;4944757;28;20261;-61
2023/12/31 09:39:45;;;;;;;6.90;3.40;;;7.20;99.90;;;;;;4952472;28;20720;-58
2023/12/31 09:42:13;;;;;;;6.07;3.50;;;7.20;99.90;;;;;;4946134;28;20736;-58
2023/12/31 09:44:41;;;;;;;7.13;3.60;;;7.20;99.90;;;;;;4951174;29;20202;-60
2023/12/31 09:47:08;;;;;;;7.60;3.60;;;7.20;99.90;;;;;;4953612;28;20623;-59
2023/12/31 09:49:35;;;;;;;5.93;3.33;;;7.20;99.90;;;;;;4944115;28;20665;-60
2023/12/31 09:52:03;;;;;;;6.63;3.00;;;7.20;99.90;;;;;;4941380;29;20195;-60
2023/12/31 09:54:32;;;;;;;6.87;3.00;;;7.30;99.90;;;;;;4941289;29;20257;-57
2023/12/31 09:56:59;;;;;;;6.30;3.43;;;7.30;99.90;;;;;;4948964;28;20643;-58
2023/12/31 09:59:25;;;;;;;5.03;3.20;;;7.30;99.90;;;;;;4948635;28;20186;-60
2023/12/31 10:01:58;;;;;;;7.57;3.20;;;7.20;99.90;;;;;;4940919;28;20648;-60
2023/12/31 10:04:24;;;;;;;5.97;2.90;;;7.30;99.90;;;;;;4936688;28;20222;-60
2023/12/31 10:06:51;;;;;;;5.30;2.67;;;7.20;99.90;;;;;;4940603;29;20203;-56
2023/12/31 10:09:22;;;;;;;4.43;2.80;;;7.30;99.90;;;;;;4933145;29;20190;-57
2023/12/31 10:11:47;;;;;;;6.50;3.40;;;7.30;99.90;;;;;;4948042;28;20265;-58
2023/12/31 10:14:13;;;;;;;7.50;3.00;;;7.30;99.90;;;;;;4946626;29;20670;-56
2023/12/31 10:16:46;;;;;;;5.73;2.80;;;7.30;99.90;;;;;;4951889;28;20221;-58
2023/12/31 10:19:12;;;;;;;8.90;3.40;;;7.30;99.90;;;;;;4946105;28;20195;-57
2023/12/31 10:21:41;;;;;;;6.33;3.40;;;7.30;99.90;;;;;;4949309;29;20273;-56
2023/12/31 10:24:07;;;;;;;5.90;3.00;;;7.30;99.90;;;;;;4946431;28;20215;-61
2023/12/31 10:26:33;;;;;;;7.23;3.57;;;7.40;99.90;;;;;;4949276;29;20666;-59
2023/12/31 10:28:59;;;;;;;8.63;4.23;;;7.50;99.90;;;;;;4943846;28;20242;-57
2023/12/31 10:31:33;;;;;;;7.50;4.00;;;7.60;99.90;;;;;;4951687;28;20587;-60
2023/12/31 10:34:15;;;;;;;7.63;4.00;;;7.70;99.90;;;;;;4943798;29;20693;-60
2023/12/31 10:36:44;;;;;;;6.20;3.20;;;7.70;99.90;;;;;;4943416;28;20198;-59
2023/12/31 10:39:09;;;;;;;6.60;3.40;;;7.80;99.90;;;;;;4951687;28;20197;-55
2023/12/31 10:41:37;;;;;;;6.17;3.53;;;7.90;99.90;;;;;;4951775;28;20199;-60
2023/12/31 10:44:11;;;;;;;10.80;4.27;;;7.90;99.90;;;;;;4947077;28;20206;-60
2023/12/31 10:46:40;;;;;;;9.47;4.70;;;8.00;99.90;;;;;;4949588;29;20218;-55
2023/12/31 10:49:10;;;;;;;7.73;4.00;;;7.90;99.90;;;;;;4946615;28;20287;-55
2023/12/31 10:51:40;;;;;;;10.33;4.53;;;8.10;99.90;;;;;;4941411;29;20445;-56
2023/12/31 10:54:08;;;;;;;9.73;4.43;;;8.30;99.90;;;;;;4938640;28;20234;-60
2023/12/31 10:56:35;;;;;;;9.30;4.83;;;8.30;99.90;;;;;;4948986;29;20666;-58
2023/12/31 10:59:02;;;;;;;7.23;3.60;;;8.50;99.90;;;;;;4947208;28;20188;-59
2023/12/31 11:01:28;;;;;;;7.57;3.40;;;8.60;99.90;;;;;;4940373;29;20265;-56
2023/12/31 11:03:56;;;;;;;5.30;3.00;;;8.70;99.90;;;;;;4943371;28;20210;-59
2023/12/31 11:06:23;;;;;;;8.40;4.10;;;8.90;99.90;;;;;;4951425;28;20222;-59
2023/12/31 11:08:49;;;;;;;6.07;3.77;;;9.00;99.90;;;;;;4948712;28;20195;-59
2023/12/31 11:11:16;;;;;;;7.27;3.80;;;9.20;99.90;;;;;;4932649;29;20183;-59
2023/12/31 11:13:46;;;;;;;11.47;4.03;;;9.10;99.90;;;;;;4941188;29;20678;-55
2023/12/31 11:16:30;;;;;;;9.17;4.40;;;9.00;99.90;;;;;;4945653;28;20290;-56
2023/12/31 11:19:25;;;;;;;7.60;4.00;;;9.10;99.90;;;;;;4940240;29;20234;-60
2023/12/31 11:22:13;;;;;;;7.90;3.90;;;9.20;99.90;;;;;;4942399;28;20225;-59
2023/12/31 11:24:38;;;;;;;6.40;3.70;;;9.40;99.90;;;;;;4946928;28;20604;-59
2023/12/31 11:27:15;;;;;;;10.03;4.13;;;9.50;99.90;;;;;;4955366;28;20723;-58
2023/12/31 11:29:41;;;;;;;7.63;3.50;;;9.40;99.90;;;;;;4955053;28;20273;-60
2023/12/31 11:32:08;;;;;;;7.47;3.80;;;9.50;99.90;;;;;;4949243;28;20270;-60
2023/12/31 11:34:40;;;;;;;7.50;4.20;;;9.40;99.90;;;;;;4951867;29;20630;-57
2023/12/31 11:37:09;;;;;;;4.63;3.20;;;9.40;99.90;;;;;;4942026;28;20561;-57
2023/12/31 11:39:34;;;;;;;9.47;3.50;;;9.50;99.90;;;;;;4944236;29;20735;-58
2023/12/31 11:42:11;;;;;;;9.43;3.87;;;9.60;99.90;;;;;;4954287;28;20193;-57
2023/12/31 11:44:38;;;;;;;7.73;3.50;;;9.70;99.90;;;;;;4945419;28;20221;-58
2023/12/31 11:47:13;;;;;;;8.43;3.50;;;9.90;99.90;;;;;;4940089;29;20210;-54
2023/12/31 11:49:46;;;;;;;4.93;3.10;;;9.80;99.90;;;;;;4953105;28;20185;-59
2023/12/31 11:52:12;;;;;;;4.80;3.10;;;9.80;99.90;;;;;;4948538;29;20182;-58
2023/12/31 11:54:39;;;;;;;4.83;2.83;;;9.60;99.90;;;;;;4945241;28;20211;-57
2023/12/31 11:57:06;;;;;;;4.43;2.83;;;9.40;99.90;;;;;;4940065;29;20175;-58
2023/12/31 11:59:38;;;;;;;8.20;3.50;;;9.30;99.90;;;;;;4954374;28;20281;-59
2023/12/31 12:02:08;;;;;;;5.37;2.73;;;9.20;99.90;;;;;;4948995;28;20750;-57
2023/12/31 12:04:38;;;;;;;4.33;2.57;;;9.10;99.90;;;;;;4951473;29;20230;-56
2023/12/31 12:07:04;;;;;;;3.93;2.50;;;9.10;99.90;;;;;;4946183;28;20559;-60
2023/12/31 12:09:31;;;;;;;3.93;1.93;;;9.10;99.90;;;;;;4938387;28;20187;-58
2023/12/31 12:12:15;;;;;;;4.03;1.83;;;9.10;99.90;;;;;;4941845;28;20183;-59
2023/12/31 12:14:41;;;;;;;6.57;2.47;;;9.00;99.90;;;;;;4944286;28;20212;-59
2023/12/31 12:17:07;;;;;;;5.40;2.10;;;8.90;99.90;;;;;;4948926;28;20195;-59
2023/12/31 12:19:36;;;;;;;5.53;2.27;;;8.90;99.90;;;;;;4942894;28;20211;-58
2023/12/31 12:22:03;;;;;;;5.37;2.63;;;9.00;99.90;;;;;;4946447;29;20377;-55
2023/12/31 12:24:29;;;;;;;5.80;2.30;;;9.00;99.90;;;;;;4953719;28;20339;-53
2023/12/31 12:26:58;;;;;;;6.13;2.40;;;9.00;99.90;;;;;;4950313;28;20298;-57
2023/12/31 12:29:25;;;;;;;5.83;1.97;;;8.80;99.90;;;;;;4942113;29;20186;-59
2023/12/31 12:31:50;;;;;;;6.90;2.37;;;8.70;99.90;;;;;;4945118;28;20274;-58
2023/12/31 12:34:17;;;;;;;2.30;1.50;;;8.80;99.90;;;;;;4944435;28;20825;-57
2023/12/31 12:36:45;;;;;;;1.73;1.30;;;8.80;99.90;;;;;;4951607;28;20195;-53
2023/12/31 12:39:18;;;;;;;5.30;1.83;;;8.80;99.90;;;;;;4942447;29;20191;-60
2023/12/31 12:41:45;;;;;;;2.77;1.30;;;8.80;99.90;;;;;;4935821;29;20270;-59
2023/12/31 12:44:11;;;;;;;3.00;1.27;;;8.70;99.90;;;;;;4953633;28;20215;-54
2023/12/31 12:46:38;;;;;;;2.10;1.20;;;8.80;99.90;;;;;;4945448;28;20247;-57
2023/12/31 12:49:05;;;;;;;3.53;1.63;;;8.80;99.90;;;;;;4940821;28;20539;-60
2023/12/31 12:51:30;;;;;;;2.20;1.17;;;8.90;99.90;;;;;;4941841;29;20558;-55